createdAt,value
2022-12-15T00:02:19.482Z,7.54
2022-12-15T00:05:06.489Z,6.88
2022-12-15T00:07:52.441Z,6.76
2022-12-15T00:10:38.574Z,6.53
2022-12-15T00:13:31.705Z,7.56
2022-12-15T00:16:18.226Z,7.64
2022-12-15T00:19:03.932Z,8.08
2022-12-15T00:21:50.219Z,7.97
2022-12-15T00:24:35.936Z,7.94
2022-12-15T00:27:21.847Z,8.10
2022-12-15T00:30:07.779Z,7.51
2022-12-15T00:32:53.652Z,6.77
2022-12-15T00:35:39.548Z,7.43
2022-12-15T00:38:30.562Z,7.94
2022-12-15T00:40:59.565Z,7.84
2022-12-15T00:43:31.011Z,8.19
2022-12-15T00:46:17.433Z,8.50
2022-12-15T00:48:44.985Z,8.28
2022-12-15T00:51:12.331Z,6.87
2022-12-15T00:53:58.179Z,7.45
2022-12-15T00:56:44.314Z,8.25
2022-12-15T00:59:30.279Z,7.75
2022-12-15T01:02:16.291Z,8.00
2022-12-15T01:05:02.374Z,6.88
2022-12-15T01:07:49.933Z,6.54
2022-12-15T01:10:36.613Z,6.83
2022-12-15T01:13:23.327Z,6.79
2022-12-15T01:16:09.247Z,7.76
2022-12-15T01:18:55.502Z,8.07
2022-12-15T01:21:24.911Z,8.26
2022-12-15T01:23:53.026Z,8.47
2022-12-15T01:26:20.138Z,8.20
2022-12-15T01:28:47.304Z,8.40
2022-12-15T01:31:14.882Z,8.67
2022-12-15T01:33:45.081Z,8.19
2022-12-15T01:36:12.270Z,7.94
2022-12-15T01:38:39.698Z,8.39
2022-12-15T01:41:07.978Z,8.11
2022-12-15T01:43:36.968Z,8.29
2022-12-15T01:46:04.418Z,8.62
2022-12-15T01:48:37.649Z,7.84
2022-12-15T01:51:23.659Z,8.10
2022-12-15T01:53:50.723Z,7.87
2022-12-15T01:56:18.116Z,8.30
2022-12-15T01:58:45.506Z,6.72
2022-12-15T02:01:12.727Z,7.00
2022-12-15T02:03:42.851Z,7.65
2022-12-15T02:06:10.304Z,7.40
2022-12-15T02:08:37.616Z,7.85
2022-12-15T02:11:08.381Z,8.07
2022-12-15T02:13:50.480Z,7.66
2022-12-15T02:16:20.190Z,7.76
2022-12-15T02:18:54.152Z,7.60
2022-12-15T02:21:32.468Z,8.40
2022-12-15T02:24:05.153Z,8.47
2022-12-15T02:26:44.742Z,8.85
2022-12-15T02:29:27.528Z,9.05
2022-12-15T02:31:55.268Z,9.17
2022-12-15T02:34:23.571Z,8.43
2022-12-15T02:37:00.443Z,7.79
2022-12-15T02:39:27.839Z,8.15
2022-12-15T02:41:55.263Z,8.17
2022-12-15T02:44:23.832Z,8.55
2022-12-15T02:47:10.002Z,8.75
2022-12-15T02:49:38.293Z,9.04
2022-12-15T02:52:18.809Z,9.30
2022-12-15T02:55:08.934Z,9.12
2022-12-15T02:57:39.153Z,9.03
2022-12-15T03:00:07.683Z,8.34
2022-12-15T03:02:35.228Z,9.17
2022-12-15T03:05:02.852Z,9.17
2022-12-15T03:07:29.976Z,9.28
2022-12-15T03:09:57.866Z,8.74
2022-12-15T03:12:25.432Z,9.20
2022-12-15T03:14:54.584Z,8.68
2022-12-15T03:17:21.706Z,9.30
2022-12-15T03:19:49.691Z,9.52
2022-12-15T03:22:18.094Z,9.71
2022-12-15T03:24:45.235Z,9.85
2022-12-15T03:27:12.690Z,9.79
2022-12-15T03:29:39.969Z,9.87
2022-12-15T03:32:07.168Z,9.92
2022-12-15T03:34:35.761Z,9.46
2022-12-15T03:37:02.892Z,9.64
2022-12-15T03:39:30.023Z,9.38
2022-12-15T03:41:57.448Z,9.44
2022-12-15T03:44:24.579Z,9.39
2022-12-15T03:46:51.741Z,8.84
2022-12-15T03:49:19.133Z,9.13
2022-12-15T03:51:46.321Z,9.47
2022-12-15T03:54:13.946Z,9.64
2022-12-15T03:56:41.337Z,9.15
2022-12-15T03:59:09.936Z,9.15
2022-12-15T04:01:37.233Z,8.95
2022-12-15T04:04:05.157Z,9.16
2022-12-15T04:06:32.380Z,8.65
2022-12-15T04:08:59.521Z,8.89
2022-12-15T04:11:26.918Z,9.19
2022-12-15T04:13:54.050Z,9.30
2022-12-15T04:16:21.349Z,9.08
2022-12-15T04:19:26.390Z,9.23
2022-12-15T04:21:53.695Z,9.35
2022-12-15T04:24:39.871Z,9.43
2022-12-15T04:27:25.787Z,9.55
2022-12-15T04:30:13.093Z,9.14
2022-12-15T04:32:58.939Z,9.49
2022-12-15T04:35:45.508Z,9.54
2022-12-15T04:38:35.998Z,9.66
2022-12-15T04:41:22.226Z,9.62
2022-12-15T04:44:08.042Z,9.63
2022-12-15T04:46:54.444Z,9.16
2022-12-15T04:49:40.324Z,9.03
2022-12-15T04:52:26.384Z,9.41
2022-12-15T04:55:12.450Z,9.38
2022-12-15T04:57:58.541Z,9.41
2022-12-15T05:00:44.566Z,9.39
2022-12-15T05:03:31.138Z,9.26
2022-12-15T05:06:17.067Z,9.37
2022-12-15T05:09:03.289Z,8.72
2022-12-15T05:11:49.173Z,9.01
2022-12-15T05:14:35.006Z,8.92
2022-12-15T05:17:21.016Z,8.24
2022-12-15T05:20:07.090Z,8.38
2022-12-15T05:22:52.910Z,8.83
2022-12-15T05:25:39.300Z,8.89
2022-12-15T05:28:25.143Z,8.77
2022-12-15T05:31:11.481Z,8.94
2022-12-15T05:33:38.715Z,9.00
2022-12-15T05:36:06.294Z,9.15
2022-12-15T05:38:33.493Z,9.03
2022-12-15T05:41:00.635Z,8.88
2022-12-15T05:43:28.544Z,9.02
2022-12-15T05:45:56.000Z,9.15
2022-12-15T05:48:23.197Z,9.27
2022-12-15T05:50:50.619Z,9.41
2022-12-15T05:53:17.779Z,9.45
2022-12-15T05:55:44.909Z,9.22
2022-12-15T05:58:12.317Z,9.43
2022-12-15T06:00:39.525Z,8.98
2022-12-15T06:03:07.625Z,9.33
2022-12-15T06:05:37.118Z,8.98
2022-12-15T06:08:04.286Z,8.61
2022-12-15T06:10:31.704Z,8.92
2022-12-15T06:12:58.827Z,9.11
2022-12-15T06:15:25.943Z,9.10
2022-12-15T06:17:55.809Z,9.22
2022-12-15T06:20:22.960Z,9.25
2022-12-15T06:22:50.356Z,7.81
2022-12-15T06:25:17.951Z,7.84
2022-12-15T06:27:45.111Z,7.97
2022-12-15T06:30:12.449Z,8.47
2022-12-15T06:32:40.323Z,8.81
2022-12-15T06:35:07.658Z,8.60
2022-12-15T06:37:34.810Z,8.43
2022-12-15T06:40:02.349Z,8.04
2022-12-15T06:42:29.471Z,7.74
2022-12-15T06:44:56.581Z,8.01
2022-12-15T06:47:23.972Z,7.82
2022-12-15T06:49:51.194Z,8.01
2022-12-15T06:52:18.319Z,8.39
2022-12-15T06:54:45.718Z,7.78
2022-12-15T06:57:12.845Z,7.30
2022-12-15T06:59:40.788Z,7.26
2022-12-15T07:02:13.895Z,7.80
2022-12-15T07:04:41.143Z,8.40
2022-12-15T07:07:09.682Z,8.65
2022-12-15T07:09:36.818Z,8.50
2022-12-15T07:12:04.116Z,8.14
2022-12-15T07:14:31.527Z,8.52
2022-12-15T07:16:58.836Z,7.24
2022-12-15T07:19:26.418Z,7.23
2022-12-15T07:21:53.952Z,7.76
2022-12-15T07:24:21.089Z,7.44
2022-12-15T07:26:48.957Z,7.63
2022-12-15T07:29:22.634Z,6.89
2022-12-15T07:31:50.679Z,6.50
2022-12-15T07:34:18.270Z,6.94
2022-12-15T07:36:51.504Z,7.55
2022-12-15T07:39:19.428Z,7.94
2022-12-15T07:41:46.841Z,7.08
2022-12-15T07:44:16.292Z,5.91
2022-12-15T07:46:46.891Z,5.68
2022-12-15T07:49:14.093Z,4.59
2022-12-15T07:51:43.976Z,5.78
2022-12-15T07:54:11.564Z,6.85
2022-12-15T07:56:39.467Z,7.75
2022-12-15T07:59:07.268Z,7.87
2022-12-15T08:01:35.333Z,7.94
2022-12-15T08:04:02.929Z,7.46
2022-12-15T08:06:30.476Z,7.28
2022-12-15T08:08:57.631Z,7.55
2022-12-15T08:11:25.928Z,7.55
2022-12-15T08:14:02.684Z,6.12
2022-12-15T08:16:31.688Z,5.17
2022-12-15T08:18:58.941Z,6.09
2022-12-15T08:21:26.049Z,5.22
2022-12-15T08:23:53.488Z,6.36
2022-12-15T08:26:23.847Z,6.58
2022-12-15T08:28:55.764Z,6.56
2022-12-15T08:31:23.503Z,5.77
2022-12-15T08:33:50.696Z,5.98
2022-12-15T08:36:19.097Z,5.94
2022-12-15T08:38:46.816Z,6.73
2022-12-15T08:41:18.224Z,6.43
2022-12-15T08:43:49.050Z,6.89
2022-12-15T08:46:21.188Z,7.43
2022-12-15T08:48:49.039Z,7.14
2022-12-15T08:51:16.780Z,7.58
2022-12-15T08:53:45.553Z,7.39
2022-12-15T08:56:14.249Z,6.83
2022-12-15T08:58:41.573Z,6.71
2022-12-15T09:01:10.972Z,7.57
2022-12-15T09:03:57.371Z,8.27
2022-12-15T09:06:26.281Z,8.67
2022-12-15T09:08:54.445Z,7.75
2022-12-15T09:11:21.751Z,8.77
2022-12-15T09:13:48.868Z,7.72
2022-12-15T09:16:16.935Z,7.82
2022-12-15T09:18:44.776Z,8.00
2022-12-15T09:21:12.466Z,7.74
2022-12-15T09:23:40.167Z,6.62
2022-12-15T09:26:11.141Z,6.21
2022-12-15T09:28:38.606Z,6.20
2022-12-15T09:31:07.246Z,7.50
2022-12-15T09:33:34.670Z,8.03
2022-12-15T09:36:02.465Z,6.98
2022-12-15T09:38:30.197Z,7.41
2022-12-15T09:40:57.302Z,8.45
2022-12-15T09:43:46.150Z,7.70
2022-12-15T09:46:28.371Z,8.41
2022-12-15T09:48:55.818Z,9.07
2022-12-15T09:51:25.817Z,9.11
2022-12-15T09:53:55.196Z,8.66
2022-12-15T09:56:28.533Z,8.13
2022-12-15T09:58:58.025Z,7.44
2022-12-15T10:01:29.500Z,6.58
2022-12-15T10:03:57.091Z,7.00
2022-12-15T10:06:31.349Z,6.89
2022-12-15T10:09:04.687Z,5.72
2022-12-15T10:11:38.009Z,5.89
2022-12-15T10:14:23.822Z,6.89
2022-12-15T10:16:53.468Z,7.06
2022-12-15T10:19:46.675Z,7.53
2022-12-15T10:22:27.661Z,8.06
2022-12-15T10:27:45.026Z,5.56
2022-12-15T10:30:13.343Z,6.33
2022-12-15T10:32:50.986Z,6.57
2022-12-15T10:35:23.618Z,6.48
2022-12-15T10:37:50.977Z,6.85
2022-12-15T10:40:19.442Z,7.54
2022-12-15T10:42:50.118Z,7.91
2022-12-15T10:45:30.592Z,8.45
2022-12-15T10:47:59.088Z,7.99
2022-12-15T10:50:27.724Z,7.14
2022-12-15T10:52:54.925Z,7.62
2022-12-15T10:55:28.169Z,6.93
2022-12-15T10:57:59.458Z,6.51
2022-12-15T11:00:28.875Z,7.57
2022-12-15T11:02:56.256Z,8.02
2022-12-15T11:05:23.986Z,8.65
2022-12-15T11:07:54.932Z,8.95
2022-12-15T11:10:50.543Z,8.57
2022-12-15T11:13:19.070Z,8.83
2022-12-15T11:15:46.160Z,8.33
2022-12-15T11:18:37.214Z,9.01
2022-12-15T11:21:16.733Z,8.46
2022-12-15T11:23:50.778Z,8.72
2022-12-15T11:26:26.808Z,9.59
2022-12-15T11:29:14.506Z,8.43
2022-12-15T11:31:42.218Z,9.32
2022-12-15T11:34:20.362Z,8.48
2022-12-15T11:37:06.350Z,9.01
2022-12-15T11:39:52.520Z,8.38
2022-12-15T11:42:23.035Z,8.42
2022-12-15T11:44:56.786Z,8.26
2022-12-15T11:47:31.424Z,9.08
2022-12-15T11:50:05.565Z,9.12
2022-12-15T11:52:41.863Z,8.33
2022-12-15T11:55:15.207Z,7.46
2022-12-15T11:57:55.418Z,7.62
2022-12-15T12:00:23.434Z,8.42
2022-12-15T12:03:09.582Z,9.50
2022-12-15T12:05:55.685Z,8.93
2022-12-15T12:08:38.798Z,8.52
2022-12-15T12:11:15.641Z,8.85
2022-12-15T12:14:02.582Z,8.17
2022-12-15T12:16:38.485Z,7.50
2022-12-15T12:19:15.173Z,8.38
2022-12-15T12:21:46.694Z,8.93
2022-12-15T12:24:30.319Z,9.25
2022-12-15T12:26:57.511Z,8.99
2022-12-15T12:29:34.688Z,9.39
2022-12-15T12:32:05.303Z,9.76
2022-12-15T12:34:38.951Z,9.17
2022-12-15T12:37:27.517Z,9.38
2022-12-15T12:39:56.413Z,8.79
2022-12-15T12:42:30.678Z,9.15
2022-12-15T12:44:58.104Z,9.63
2022-12-15T12:47:27.162Z,9.79
2022-12-15T12:49:55.178Z,10.09
2022-12-15T12:52:23.754Z,10.13
2022-12-15T12:54:53.731Z,9.99
2022-12-15T12:57:44.106Z,10.47
2022-12-15T13:00:15.773Z,10.49
2022-12-15T13:02:53.785Z,10.70
2022-12-15T13:05:22.874Z,10.26
2022-12-15T13:07:53.792Z,9.38
2022-12-15T13:10:21.932Z,8.61
2022-12-15T13:12:55.891Z,8.00
2022-12-15T13:15:29.537Z,8.79
2022-12-15T13:18:00.574Z,9.09
2022-12-15T13:20:28.829Z,9.60
2022-12-15T13:22:56.914Z,9.31
2022-12-15T13:25:27.145Z,9.61
2022-12-15T13:27:57.815Z,7.79
2022-12-15T13:30:25.008Z,8.83
2022-12-15T13:32:53.641Z,8.38
2022-12-15T13:35:21.164Z,9.50
2022-12-15T13:37:54.547Z,8.18
2022-12-15T13:40:24.776Z,9.02
2022-12-15T13:42:58.917Z,9.58
2022-12-15T13:45:43.802Z,9.70
2022-12-15T13:48:20.324Z,7.91
2022-12-15T13:50:51.485Z,7.84
2022-12-15T13:53:21.780Z,9.52
2022-12-15T13:55:52.624Z,9.87
2022-12-15T13:58:19.783Z,8.32
2022-12-15T14:00:57.683Z,8.69
2022-12-15T14:03:25.759Z,8.67
2022-12-15T14:05:55.210Z,8.55
2022-12-15T14:08:22.977Z,8.71
2022-12-15T14:10:54.685Z,8.48
2022-12-15T14:13:32.240Z,8.79
2022-12-15T14:16:04.967Z,8.74
2022-12-15T14:18:33.999Z,8.97
2022-12-15T14:21:02.333Z,8.68
2022-12-15T14:23:31.053Z,7.95
2022-12-15T14:26:13.770Z,8.65
2022-12-15T14:28:42.398Z,8.62
2022-12-15T14:31:22.637Z,8.65
2022-12-15T14:33:53.931Z,8.90
2022-12-15T14:36:21.050Z,8.25
2022-12-15T14:38:52.443Z,8.10
2022-12-15T14:41:21.262Z,8.20
2022-12-15T14:44:31.398Z,8.37
2022-12-15T14:46:37.315Z,9.08
2022-12-15T14:49:05.012Z,8.62
2022-12-15T14:51:32.979Z,8.57
2022-12-15T14:54:00.408Z,8.46
2022-12-15T14:56:30.834Z,7.55
2022-12-15T14:58:59.711Z,7.91
2022-12-15T15:01:33.323Z,6.80
2022-12-15T15:03:03.979Z,7.31
2022-12-15T15:04:04.781Z,8.08
2022-12-15T15:06:36.558Z,8.38
2022-12-15T15:09:05.097Z,8.99
2022-12-15T15:11:33.979Z,7.36
2022-12-15T15:14:19.806Z,6.71
2022-12-15T15:16:57.044Z,7.32
2022-12-15T15:19:24.224Z,7.62
2022-12-15T15:21:51.643Z,7.33
2022-12-15T15:24:39.920Z,7.10
2022-12-15T15:27:26.807Z,7.40
2022-12-15T15:30:06.050Z,7.01
2022-12-15T15:32:48.660Z,7.24
2022-12-15T15:35:15.822Z,6.80
2022-12-15T15:37:43.391Z,6.88
2022-12-15T15:40:10.899Z,7.45
2022-12-15T15:42:38.059Z,6.33
2022-12-15T15:45:10.182Z,6.99
2022-12-15T15:47:37.500Z,5.76
2022-12-15T15:50:04.814Z,6.28
2022-12-15T15:52:32.337Z,5.73
2022-12-15T15:55:01.605Z,6.08
2022-12-15T15:57:29.638Z,6.61
2022-12-15T15:59:57.053Z,6.46
2022-12-15T16:02:42.993Z,6.52
2022-12-15T16:05:10.737Z,5.27
2022-12-15T16:07:37.998Z,6.28
2022-12-15T16:10:06.993Z,6.46
2022-12-15T16:12:42.325Z,6.86
2022-12-15T16:15:13.629Z,6.86
2022-12-15T16:17:46.769Z,5.77
2022-12-15T16:20:15.344Z,6.47
2022-12-15T16:22:45.643Z,6.61
2022-12-15T16:25:17.961Z,5.83
2022-12-15T16:27:45.845Z,5.71
2022-12-15T16:30:14.689Z,6.82
2022-12-15T16:32:41.824Z,7.05
2022-12-15T16:35:11.796Z,7.31
2022-12-15T16:37:46.428Z,6.93
2022-12-15T16:40:17.741Z,7.08
2022-12-15T16:42:55.273Z,6.38
2022-12-15T16:45:24.822Z,6.54
2022-12-15T16:47:52.480Z,6.38
2022-12-15T16:50:30.537Z,6.99
2022-12-15T16:52:57.926Z,6.03
2022-12-15T16:55:29.326Z,6.34
2022-12-15T16:57:59.847Z,6.39
2022-12-15T17:00:28.918Z,6.51
2022-12-15T17:02:56.449Z,6.67
2022-12-15T17:05:25.606Z,6.54
2022-12-15T17:07:55.055Z,7.01
2022-12-15T17:10:23.661Z,7.00
2022-12-15T17:12:51.506Z,6.46
2022-12-15T17:15:23.727Z,6.95
2022-12-15T17:17:51.121Z,6.69
2022-12-15T17:20:29.719Z,6.99
2022-12-15T17:23:08.388Z,6.75
2022-12-15T17:26:10.390Z,6.67
2022-12-15T17:28:29.388Z,7.24
2022-12-15T17:30:57.577Z,6.72
2022-12-15T17:33:24.937Z,6.21
2022-12-15T17:36:02.181Z,6.53
2022-12-15T17:38:29.855Z,6.31
2022-12-15T17:40:57.287Z,6.96
2022-12-15T17:43:29.359Z,6.56
2022-12-15T17:46:01.896Z,7.17
2022-12-15T17:48:29.431Z,7.12
2022-12-15T17:50:56.623Z,7.16
2022-12-15T17:53:25.119Z,6.59
2022-12-15T17:55:53.644Z,7.71
2022-12-15T17:58:22.182Z,7.23
2022-12-15T18:00:53.421Z,6.99
2022-12-15T18:03:21.809Z,6.60
2022-12-15T18:05:50.133Z,6.54
2022-12-15T18:08:21.403Z,5.68
2022-12-15T18:10:50.154Z,5.96
2022-12-15T18:13:33.345Z,5.93
2022-12-15T18:16:03.293Z,6.13
2022-12-15T18:18:31.141Z,7.06
2022-12-15T18:21:00.850Z,6.66
2022-12-15T18:23:33.059Z,6.95
2022-12-15T18:26:03.097Z,6.52
2022-12-15T18:28:32.743Z,6.90
2022-12-15T18:31:02.178Z,7.15
2022-12-15T18:33:30.737Z,6.41
2022-12-15T18:35:58.703Z,6.05
2022-12-15T18:38:26.433Z,6.02
2022-12-15T18:40:58.678Z,6.49
2022-12-15T18:43:27.756Z,5.95
2022-12-15T18:45:56.731Z,5.58
2022-12-15T18:48:32.577Z,6.16
2022-12-15T18:51:06.752Z,5.98
2022-12-15T18:53:35.658Z,5.66
2022-12-15T18:56:05.821Z,5.93
2022-12-15T18:58:35.702Z,6.26
2022-12-15T19:01:08.045Z,5.84
2022-12-15T19:03:42.458Z,6.11
2022-12-15T19:06:15.042Z,5.66
2022-12-15T19:08:42.523Z,6.25
2022-12-15T19:11:17.539Z,6.51
2022-12-15T19:13:48.707Z,6.59
2022-12-15T19:16:16.794Z,7.11
2022-12-15T19:19:02.887Z,7.05
2022-12-15T19:21:46.234Z,5.80
2022-12-15T19:24:15.440Z,6.02
2022-12-15T19:26:47.105Z,6.25
2022-12-15T19:29:19.206Z,5.24
2022-12-15T19:31:47.176Z,6.19
2022-12-15T19:34:15.717Z,6.64
2022-12-15T19:36:43.606Z,7.13
2022-12-15T19:39:16.928Z,6.43
2022-12-15T19:41:45.619Z,6.38
2022-12-15T19:44:15.087Z,6.30
2022-12-15T19:46:45.418Z,7.10
2022-12-15T19:49:14.598Z,6.34
2022-12-15T19:51:42.646Z,5.76
2022-12-15T19:54:18.219Z,5.45
2022-12-15T19:56:46.405Z,4.90
2022-12-15T19:59:19.217Z,4.71
2022-12-15T20:01:48.106Z,4.55
2022-12-15T20:04:24.091Z,4.60
2022-12-15T20:06:52.342Z,4.60
2022-12-15T20:09:20.278Z,4.88
2022-12-15T20:11:47.676Z,4.31
2022-12-15T20:14:20.152Z,5.12
2022-12-15T20:16:47.876Z,5.68
2022-12-15T20:19:15.339Z,4.97
2022-12-15T20:21:43.088Z,5.47
2022-12-15T20:24:14.944Z,5.50
2022-12-15T20:26:43.642Z,5.86
2022-12-15T20:29:25.119Z,5.40
2022-12-15T20:31:52.913Z,5.48
2022-12-15T20:34:24.258Z,5.20
2022-12-15T20:36:51.702Z,4.42
2022-12-15T20:39:26.103Z,4.47
2022-12-15T20:41:53.812Z,4.56
2022-12-15T20:44:21.322Z,4.35
2022-12-15T20:46:49.024Z,3.88
2022-12-15T20:49:19.859Z,3.95
2022-12-15T20:51:47.422Z,4.02
2022-12-15T20:54:15.995Z,4.56
2022-12-15T20:56:43.580Z,4.11
2022-12-15T20:59:11.751Z,4.74
2022-12-15T21:01:39.473Z,5.31
2022-12-15T21:04:27.288Z,5.36
2022-12-15T21:06:55.264Z,5.03
2022-12-15T21:09:23.396Z,5.39
2022-12-15T21:11:51.872Z,4.81
2022-12-15T21:14:20.974Z,5.01
2022-12-15T21:16:48.524Z,5.12
2022-12-15T21:19:20.942Z,5.23
2022-12-15T21:21:51.799Z,4.85
2022-12-15T21:24:26.559Z,4.28
2022-12-15T21:26:54.848Z,4.88
2022-12-15T21:29:23.016Z,5.68
2022-12-15T21:31:50.439Z,5.21
2022-12-15T21:34:17.878Z,4.78
2022-12-15T21:36:45.894Z,4.60
2022-12-15T21:39:15.924Z,5.47
2022-12-15T21:41:43.423Z,5.22
2022-12-15T21:44:13.960Z,5.09
2022-12-15T21:46:41.203Z,5.50
2022-12-15T21:49:15.030Z,4.69
2022-12-15T21:51:43.403Z,4.33
2022-12-15T21:54:14.062Z,4.18
2022-12-15T21:56:41.200Z,4.50
2022-12-15T21:59:11.788Z,5.26
2022-12-15T22:01:39.604Z,5.42
2022-12-15T22:04:08.041Z,5.51
2022-12-15T22:06:35.180Z,5.99
2022-12-15T22:09:02.736Z,5.94
2022-12-15T22:11:30.550Z,6.22
2022-12-15T22:14:01.081Z,6.88
2022-12-15T22:16:28.361Z,5.40
2022-12-15T22:18:56.457Z,5.22
2022-12-15T22:21:24.230Z,5.17
2022-12-15T22:23:51.881Z,5.66
2022-12-15T22:26:23.175Z,4.75
2022-12-15T22:28:51.067Z,6.00
2022-12-15T22:31:19.383Z,6.25
2022-12-15T22:33:46.615Z,5.54
2022-12-15T22:36:13.810Z,5.39
2022-12-15T22:38:41.891Z,5.19
2022-12-15T22:41:13.134Z,5.59
2022-12-15T22:43:41.114Z,4.52
2022-12-15T22:46:09.383Z,4.63
2022-12-15T22:48:37.480Z,5.02
2022-12-15T22:51:05.416Z,5.19
2022-12-15T22:53:33.612Z,5.04
2022-12-15T22:56:01.106Z,5.39
2022-12-15T22:58:33.414Z,4.77
2022-12-15T23:01:00.893Z,4.78
2022-12-15T23:03:28.017Z,6.01
2022-12-15T23:05:55.466Z,5.65
2022-12-15T23:08:22.645Z,6.01
2022-12-15T23:11:10.048Z,5.93
2022-12-15T23:13:37.479Z,6.29
2022-12-15T23:16:22.995Z,6.30
2022-12-15T23:18:51.676Z,6.92
2022-12-15T23:21:19.317Z,6.25
2022-12-15T23:23:46.511Z,6.10
2022-12-15T23:26:14.307Z,5.89
2022-12-15T23:28:41.675Z,6.36
2022-12-15T23:31:08.986Z,6.39
2022-12-15T23:33:37.791Z,6.70
2022-12-15T23:36:05.277Z,5.40
2022-12-15T23:38:32.459Z,5.60
2022-12-15T23:41:00.391Z,5.79
2022-12-15T23:43:27.940Z,5.51
2022-12-15T23:45:56.041Z,5.58
2022-12-15T23:48:23.876Z,5.85
2022-12-15T23:50:51.002Z,5.62
2022-12-15T23:53:18.260Z,5.71
2022-12-15T23:55:45.701Z,6.51
2022-12-15T23:58:12.827Z,6.17
